TVC weather

Cherry Capital Airport
Traverse City, Michigan, United States

Public forecast

Using degrees Fahrenheit for public forecast. Weather courtesy of forecast.io.

Current aviation weather report (METAR) for Cherry Capital Airport

Retrieved 2020/04/06 17:53 UTC (26 minutes ago):

KTVC 061753Z 03009KT 10SM FEW110 BKN160 OVC250 09/M03 A3005 RMK AO2 SLP182 T00941028 10128 21011 58025

Aviation forecast (TAF) for Cherry Capital Airport

Retrieved 2020/04/06 18:28 UTC (0 seconds ago):

TAF KTVC 061726Z 0618/0718 VRB04KT P6SM BKN120 FM070100 00000KT P6SM BKN100 FM071400 14006KT P6SM BKN045